Time;durP1;ratioP1;P1;durP2;ratioP2;P2;SDS_P1;SDS_P2;PMS_P1;PMS_P2;Temp;Humidity;BMP_temperature;BMP_pressure;BME280_temperature;BME280_humidity;BME280_pressure;Samples;Min_cycle;Max_cycle;Signal;HPM_P1;HPM_P2
2023/06/05 00:01:03;;;;;;;2.60;2.40;;;;;;;;;;4929738;29;20052;-76
2023/06/05 00:03:30;;;;;;;2.75;2.55;;;;;;;;;;4928612;29;20110;-75
2023/06/05 00:05:58;;;;;;;2.55;2.42;;;;;;;;;;4929532;29;20118;-76
2023/06/05 00:08:25;;;;;;;2.55;2.35;;;;;;;;;;4931189;29;20047;-76
2023/06/05 00:10:53;;;;;;;2.78;2.55;;;;;;;;;;4928765;29;20417;-77
2023/06/05 00:13:20;;;;;;;2.60;2.40;;;;;;;;;;4929401;29;20157;-76
2023/06/05 00:15:48;;;;;;;3.20;2.88;;;;;;;;;;4928225;29;20058;-76
2023/06/05 00:18:17;;;;;;;2.60;2.40;;;;;;;;;;4928786;29;20054;-76
2023/06/05 00:20:45;;;;;;;2.20;2.10;;;;;;;;;;4931792;29;20043;-76
2023/06/05 00:23:13;;;;;;;2.75;2.55;;;;;;;;;;4929567;29;20131;-75
2023/06/05 00:25:41;;;;;;;2.30;2.20;;;;;;;;;;4930226;29;20150;-75
2023/06/05 00:28:09;;;;;;;2.63;2.53;;;;;;;;;;4927352;29;20569;-75
2023/06/05 00:30:37;;;;;;;2.67;2.03;;;;;;;;;;4928600;29;20051;-75
2023/06/05 00:33:04;;;;;;;2.50;2.40;;;;;;;;;;4930353;29;20131;-76
2023/06/05 00:35:32;;;;;;;3.10;2.90;;;;;;;;;;4928083;29;20035;-75
2023/06/05 00:37:59;;;;;;;2.70;2.50;;;;;;;;;;4928199;29;20145;-76
2023/06/05 00:40:27;;;;;;;2.70;2.50;;;;;;;;;;4925899;29;20078;-75
2023/06/05 00:42:54;;;;;;;2.53;2.30;;;;;;;;;;4929810;29;20044;-75
2023/06/05 00:45:22;;;;;;;2.47;2.38;;;;;;;;;;4925600;29;20047;-77
2023/06/05 00:47:49;;;;;;;3.47;3.17;;;;;;;;;;4925832;29;20510;-76
2023/06/05 00:50:21;;;;;;;2.55;2.45;;;;;;;;;;4929669;29;20691;-75
2023/06/05 00:52:49;;;;;;;2.53;2.40;;;;;;;;;;4931352;29;20051;-76
2023/06/05 00:55:16;;;;;;;3.00;2.72;;;;;;;;;;4929937;29;20413;-76
2023/06/05 00:57:45;;;;;;;3.10;2.90;;;;;;;;;;4928589;29;20044;-77
2023/06/05 01:00:12;;;;;;;2.80;2.60;;;;;;;;;;4927955;29;20048;-74
2023/06/05 01:02:40;;;;;;;3.35;3.05;;;;;;;;;;4926730;29;20048;-74
2023/06/05 01:05:09;;;;;;;2.60;2.40;;;;;;;;;;4927310;29;20075;-76
2023/06/05 01:07:39;;;;;;;2.63;2.42;;;;;;;;;;4925046;28;20142;-76
2023/06/05 01:10:08;;;;;;;2.53;2.30;;;;;;;;;;4928255;29;20051;-75
2023/06/05 01:12:43;;;;;;;2.60;2.40;;;;;;;;;;4927276;29;20050;-75
2023/06/05 01:15:11;;;;;;;3.35;2.20;;;;;;;;;;4928568;29;20421;-76
2023/06/05 01:17:40;;;;;;;2.80;2.60;;;;;;;;;;4925640;29;20044;-76
2023/06/05 01:20:09;;;;;;;2.58;2.47;;;;;;;;;;4932083;29;20447;-77
2023/06/05 01:22:37;;;;;;;2.50;2.30;;;;;;;;;;4928949;29;20075;-76
2023/06/05 01:25:06;;;;;;;2.47;2.38;;;;;;;;;;4926459;29;20075;-76
2023/06/05 01:27:42;;;;;;;2.38;2.28;;;;;;;;;;4923711;29;20517;-76
2023/06/05 01:30:14;;;;;;;2.60;2.50;;;;;;;;;;4923448;29;20055;-76
2023/06/05 01:32:41;;;;;;;;;;;;;;;;;;4923193;29;20167;-77
2023/06/05 01:35:10;;;;;;;2.30;2.20;;;;;;;;;;4923801;29;20319;-75
2023/06/05 01:37:46;;;;;;;2.15;2.05;;;;;;;;;;4922553;29;20047;-74
2023/06/05 01:40:15;;;;;;;2.60;2.40;;;;;;;;;;4930390;29;20047;-76
2023/06/05 01:42:43;;;;;;;2.65;2.45;;;;;;;;;;4928001;29;20069;-75
2023/06/05 01:45:12;;;;;;;2.40;2.30;;;;;;;;;;4929407;29;20163;-76
2023/06/05 01:47:39;;;;;;;3.03;2.83;;;;;;;;;;4927473;29;20051;-76
2023/06/05 01:50:08;;;;;;;3.78;2.30;;;;;;;;;;4919993;29;20062;-75
2023/06/05 01:52:39;;;;;;;2.75;2.55;;;;;;;;;;4933883;28;20047;-74
2023/06/05 01:55:12;;;;;;;2.67;2.47;;;;;;;;;;4927817;29;20071;-76
2023/06/05 01:57:40;;;;;;;2.72;2.53;;;;;;;;;;4921016;29;20114;-75
2023/06/05 02:00:15;;;;;;;2.80;2.70;;;;;;;;;;4905931;29;20051;-75
2023/06/05 02:02:50;;;;;;;3.45;3.25;;;;;;;;;;4922290;29;20433;-77
2023/06/05 02:05:17;;;;;;;;;;;;;;;;;;4927368;29;20052;-76
2023/06/05 02:07:58;;;;;;;2.60;2.50;;;;;;;;;;4926205;29;19929;-76
2023/06/05 02:10:25;;;;;;;3.05;2.85;;;;;;;;;;4923433;29;20043;-76
2023/06/05 02:12:53;;;;;;;2.97;2.78;;;;;;;;;;4925792;29;20453;-76
2023/06/05 02:15:22;;;;;;;2.90;2.70;;;;;;;;;;4917823;29;20134;-75
2023/06/05 02:17:52;;;;;;;2.90;2.70;;;;;;;;;;4951437;23;20066;-88
2023/06/05 02:20:24;;;;;;;3.17;2.97;;;;;;;;;;4949335;28;20047;-88
2023/06/05 02:22:52;;;;;;;2.90;2.70;;;;;;;;;;4949345;28;20133;-87
2023/06/05 02:25:20;;;;;;;4.15;2.90;;;;;;;;;;4946581;28;20338;-86
2023/06/05 02:27:48;;;;;;;2.40;2.30;;;;;;;;;;4963636;28;20127;-87
2023/06/05 02:30:16;;;;;;;2.90;2.70;;;;;;;;;;4947629;28;20134;-86
2023/06/05 02:32:44;;;;;;;2.97;2.78;;;;;;;;;;4949621;28;20051;-87
2023/06/05 02:35:13;;;;;;;2.45;2.33;;;;;;;;;;4949710;28;20059;-86
2023/06/05 02:37:44;;;;;;;2.92;2.58;;;;;;;;;;4953527;28;20050;-87
2023/06/05 02:40:12;;;;;;;;;;;;;;;;;;4951453;28;20043;-87
2023/06/05 02:42:40;;;;;;;2.65;2.45;;;;;;;;;;4951616;28;19927;-87
2023/06/05 02:45:08;;;;;;;4.03;2.85;;;;;;;;;;4942595;28;20106;-87
2023/06/05 02:47:36;;;;;;;2.88;2.67;;;;;;;;;;4952460;28;20051;-87
2023/06/05 02:50:04;;;;;;;3.28;2.97;;;;;;;;;;4947056;28;20490;-87
2023/06/05 02:52:35;;;;;;;3.20;3.00;;;;;;;;;;4950865;28;20051;-87
2023/06/05 02:55:10;;;;;;;3.03;2.83;;;;;;;;;;4944979;28;20049;-87
2023/06/05 02:57:42;;;;;;;3.08;2.88;;;;;;;;;;4945601;28;20122;-87
2023/06/05 03:00:16;;;;;;;3.47;2.90;;;;;;;;;;4946584;28;20105;-87
2023/06/05 03:02:50;;;;;;;3.08;2.88;;;;;;;;;;4929826;28;20051;-87
2023/06/05 03:05:25;;;;;;;3.13;2.92;;;;;;;;;;4949142;28;20114;-86
2023/06/05 03:07:57;;;;;;;2.90;2.70;;;;;;;;;;4945705;28;20054;-85
2023/06/05 03:10:27;;;;;;;2.67;2.47;;;;;;;;;;4954388;28;20642;-86
2023/06/05 03:12:55;;;;;;;3.08;2.80;;;;;;;;;;4951024;28;20054;-86
2023/06/05 03:15:24;;;;;;;3.13;2.90;;;;;;;;;;4944483;28;20128;-86
2023/06/05 03:17:52;;;;;;;2.83;2.63;;;;;;;;;;4950075;28;20050;-85
2023/06/05 03:20:22;;;;;;;3.20;3.00;;;;;;;;;;4947488;28;20419;-86
2023/06/05 03:22:50;;;;;;;3.08;2.88;;;;;;;;;;4945475;28;20039;-87
2023/06/05 03:25:17;;;;;;;2.97;2.78;;;;;;;;;;4952849;28;20054;-84
2023/06/05 03:27:48;;;;;;;3.47;3.08;;;;;;;;;;4946813;28;20461;-87
2023/06/05 03:30:18;;;;;;;3.28;3.08;;;;;;;;;;4946340;28;20142;-86
2023/06/05 03:32:50;;;;;;;3.50;3.30;;;;;;;;;;4952850;28;20098;-87
2023/06/05 03:35:19;;;;;;;3.10;2.90;;;;;;;;;;4954026;28;20141;-86
2023/06/05 03:37:47;;;;;;;2.60;2.40;;;;;;;;;;4958490;28;20410;-86
2023/06/05 03:40:15;;;;;;;3.10;2.90;;;;;;;;;;4967983;28;20047;-87
2023/06/05 03:42:43;;;;;;;3.33;3.13;;;;;;;;;;4949292;28;20395;-86
2023/06/05 03:45:13;;;;;;;3.10;2.90;;;;;;;;;;4955232;28;20857;-86
2023/06/05 03:47:41;;;;;;;3.58;3.33;;;;;;;;;;4958500;28;20461;-86
2023/06/05 03:50:12;;;;;;;3.30;3.10;;;;;;;;;;4946590;28;20533;-86
2023/06/05 03:52:43;;;;;;;3.88;3.50;;;;;;;;;;4952172;28;20469;-85
2023/06/05 03:55:10;;;;;;;3.47;3.17;;;;;;;;;;4952671;28;20047;-87
2023/06/05 03:57:39;;;;;;;2.80;2.60;;;;;;;;;;4948035;28;20054;-88
2023/06/05 04:00:10;;;;;;;2.78;2.58;;;;;;;;;;4947072;28;20047;-88
2023/06/05 04:02:46;;;;;;;3.15;2.95;;;;;;;;;;4953466;28;20047;-88
2023/06/05 04:05:15;;;;;;;2.50;2.40;;;;;;;;;;4948119;28;20053;-88
2023/06/05 04:07:43;;;;;;;3.47;2.75;;;;;;;;;;4952823;28;20052;-86
2023/06/05 04:10:11;;;;;;;3.58;3.38;;;;;;;;;;4952332;28;20043;-87
2023/06/05 04:12:39;;;;;;;3.10;2.90;;;;;;;;;;4951426;28;21045;-88
2023/06/05 04:15:09;;;;;;;3.40;3.10;;;;;;;;;;4961476;28;20047;-87
2023/06/05 04:17:37;;;;;;;3.47;3.17;;;;;;;;;;4951282;28;20137;-87
2023/06/05 04:20:08;;;;;;;3.10;2.90;;;;;;;;;;4950448;28;20051;-87
2023/06/05 04:22:36;;;;;;;4.40;3.27;;;;;;;;;;4950421;28;20152;-86
2023/06/05 04:25:04;;;;;;;3.20;3.00;;;;;;;;;;4943274;28;20069;-86
2023/06/05 04:27:31;;;;;;;3.42;3.13;;;;;;;;;;4950551;28;20090;-87
2023/06/05 04:29:58;;;;;;;3.03;2.80;;;;;;;;;;4948934;28;20142;-85
2023/06/05 04:32:26;;;;;;;3.22;3.03;;;;;;;;;;4943554;28;20058;-85
2023/06/05 04:34:54;;;;;;;3.20;3.00;;;;;;;;;;4943143;28;20044;-86
2023/06/05 04:37:21;;;;;;;3.03;2.85;;;;;;;;;;4949703;28;20054;-87
2023/06/05 04:39:49;;;;;;;3.42;3.10;;;;;;;;;;4953463;28;20055;-85
2023/06/05 04:42:17;;;;;;;3.10;2.90;;;;;;;;;;4952197;28;20058;-87
2023/06/05 04:44:53;;;;;;;4.85;3.25;;;;;;;;;;4941669;28;20052;-86
2023/06/05 04:47:21;;;;;;;3.20;3.00;;;;;;;;;;4933666;28;20074;-86
2023/06/05 04:49:51;;;;;;;3.20;2.90;;;;;;;;;;4939514;28;20055;-86
2023/06/05 04:52:20;;;;;;;3.17;2.97;;;;;;;;;;4960164;28;20064;-85
2023/06/05 04:54:49;;;;;;;3.10;2.90;;;;;;;;;;4972179;28;20111;-86
2023/06/05 04:57:18;;;;;;;3.40;3.10;;;;;;;;;;4972044;28;20043;-83
2023/06/05 04:59:45;;;;;;;2.60;2.50;;;;;;;;;;4971063;28;20509;-83
2023/06/05 05:02:15;;;;;;;3.08;2.90;;;;;;;;;;4975194;28;20071;-85
2023/06/05 05:04:44;;;;;;;3.10;2.80;;;;;;;;;;4977992;28;20107;-84
2023/06/05 05:07:16;;;;;;;3.55;3.25;;;;;;;;;;4970148;28;20043;-85
2023/06/05 05:09:45;;;;;;;3.22;3.03;;;;;;;;;;4963429;28;20162;-84
2023/06/05 05:12:13;;;;;;;3.65;3.35;;;;;;;;;;4969374;28;20480;-85
2023/06/05 05:14:41;;;;;;;4.03;3.72;;;;;;;;;;4965308;28;20055;-85
2023/06/05 05:17:09;;;;;;;3.80;3.50;;;;;;;;;;4949834;28;20552;-86
2023/06/05 05:19:40;;;;;;;3.60;3.40;;;;;;;;;;4961118;28;20073;-83
2023/06/05 05:22:08;;;;;;;;;;;;;;;;;;4969097;28;20051;-85
2023/06/05 05:24:35;;;;;;;3.60;3.30;;;;;;;;;;4955659;28;19926;-84
2023/06/05 05:27:03;;;;;;;3.30;3.10;;;;;;;;;;4956069;28;20101;-87
2023/06/05 05:29:33;;;;;;;3.72;3.42;;;;;;;;;;4957300;28;20071;-85
2023/06/05 05:32:01;;;;;;;3.45;2.90;;;;;;;;;;4953095;28;20047;-85
2023/06/05 05:34:29;;;;;;;3.20;2.90;;;;;;;;;;4957434;28;20075;-85
2023/06/05 05:36:57;;;;;;;3.20;3.00;;;;;;;;;;4963292;28;20242;-86
2023/06/05 05:39:25;;;;;;;3.15;2.95;;;;;;;;;;4953938;28;20043;-85
2023/06/05 05:41:53;;;;;;;3.72;2.92;;;;;;;;;;4949582;28;20102;-84
2023/06/05 05:44:20;;;;;;;2.88;2.67;;;;;;;;;;4956041;28;20059;-84
2023/06/05 05:46:47;;;;;;;3.20;3.00;;;;;;;;;;4959288;28;20054;-85
2023/06/05 05:49:18;;;;;;;3.10;2.90;;;;;;;;;;4957000;28;20047;-86
2023/06/05 05:51:45;;;;;;;3.08;2.88;;;;;;;;;;4955995;28;20586;-87
2023/06/05 05:54:12;;;;;;;3.10;2.90;;;;;;;;;;4954749;28;20466;-86
2023/06/05 05:56:42;;;;;;;3.05;2.85;;;;;;;;;;4960179;28;20049;-86
2023/06/05 05:59:09;;;;;;;2.70;2.50;;;;;;;;;;4957377;28;20138;-87
2023/06/05 06:01:37;;;;;;;2.80;2.60;;;;;;;;;;4953469;28;20067;-87
2023/06/05 06:04:05;;;;;;;3.47;3.17;;;;;;;;;;4953446;28;20066;-88
2023/06/05 06:06:34;;;;;;;2.90;2.70;;;;;;;;;;4948581;28;20047;-87
2023/06/05 06:09:02;;;;;;;2.83;2.63;;;;;;;;;;4950152;28;20051;-86
2023/06/05 06:11:30;;;;;;;2.67;2.58;;;;;;;;;;4945101;28;20049;-87
2023/06/05 06:13:57;;;;;;;2.60;2.50;;;;;;;;;;4953034;28;20055;-87
2023/06/05 06:16:25;;;;;;;2.72;2.53;;;;;;;;;;4957771;28;20035;-87
2023/06/05 06:18:55;;;;;;;2.85;2.65;;;;;;;;;;4953133;28;20047;-87
2023/06/05 06:21:25;;;;;;;;;;;;;;;;;;4958647;28;20043;-87
2023/06/05 06:23:52;;;;;;;3.05;2.85;;;;;;;;;;4962417;28;20370;-86
2023/06/05 06:26:19;;;;;;;2.75;2.55;;;;;;;;;;4949293;28;20051;-86
2023/06/05 06:28:48;;;;;;;3.03;2.83;;;;;;;;;;4951998;28;20054;-86
2023/06/05 06:31:15;;;;;;;2.50;2.40;;;;;;;;;;4948496;28;20078;-86
2023/06/05 06:33:44;;;;;;;2.60;2.40;;;;;;;;;;4952121;28;20050;-86
2023/06/05 06:36:12;;;;;;;2.67;2.58;;;;;;;;;;4950986;28;20066;-85
2023/06/05 06:38:39;;;;;;;2.63;2.53;;;;;;;;;;4945364;28;20098;-87
2023/06/05 06:41:07;;;;;;;2.47;2.28;;;;;;;;;;4950559;28;20682;-88
2023/06/05 06:43:35;;;;;;;2.20;2.10;;;;;;;;;;4955108;28;20047;-87
2023/06/05 06:46:05;;;;;;;2.40;2.30;;;;;;;;;;4957720;28;20052;-87
2023/06/05 06:48:33;;;;;;;2.20;2.10;;;;;;;;;;4957895;28;20039;-86
2023/06/05 06:51:02;;;;;;;2.13;2.03;;;;;;;;;;4962164;28;20070;-85
2023/06/05 06:53:29;;;;;;;2.20;2.10;;;;;;;;;;4957228;28;20078;-86
2023/06/05 06:55:57;;;;;;;2.47;2.28;;;;;;;;;;4965684;28;20058;-86
2023/06/05 06:58:24;;;;;;;2.95;2.80;;;;;;;;;;4963020;28;20090;-87
2023/06/05 07:00:52;;;;;;;2.58;2.42;;;;;;;;;;4970133;28;20047;-85
2023/06/05 07:03:19;;;;;;;2.50;2.40;;;;;;;;;;4971715;28;20111;-86
2023/06/05 07:05:47;;;;;;;2.22;2.13;;;;;;;;;;4967565;28;20067;-85
2023/06/05 07:08:14;;;;;;;2.95;2.72;;;;;;;;;;4961031;28;20138;-86
2023/06/05 07:10:42;;;;;;;2.53;2.33;;;;;;;;;;4950318;28;20535;-86
2023/06/05 07:13:09;;;;;;;2.78;2.58;;;;;;;;;;4951057;28;20066;-86
2023/06/05 07:15:36;;;;;;;2.55;2.45;;;;;;;;;;4950482;28;20074;-85
2023/06/05 07:18:04;;;;;;;3.47;2.30;;;;;;;;;;4949590;28;20071;-87
2023/06/05 07:20:32;;;;;;;2.50;2.40;;;;;;;;;;4950055;28;20043;-84
2023/06/05 07:23:00;;;;;;;2.60;2.50;;;;;;;;;;4956770;28;20056;-88
2023/06/05 07:25:28;;;;;;;2.83;2.63;;;;;;;;;;4947386;28;20054;-86
2023/06/05 07:27:55;;;;;;;2.90;2.70;;;;;;;;;;4960065;28;20043;-85
2023/06/05 07:30:22;;;;;;;2.50;2.40;;;;;;;;;;4956601;28;20051;-86
2023/06/05 07:32:50;;;;;;;2.45;2.35;;;;;;;;;;4952768;28;20048;-85
2023/06/05 07:35:18;;;;;;;2.22;2.13;;;;;;;;;;4959151;28;20051;-86
2023/06/05 07:37:45;;;;;;;2.50;2.40;;;;;;;;;;4956679;28;20482;-84
2023/06/05 07:40:13;;;;;;;2.50;2.40;;;;;;;;;;4950929;28;20043;-86
2023/06/05 07:42:41;;;;;;;2.47;2.38;;;;;;;;;;4954953;28;20055;-89
2023/06/05 07:45:21;;;;;;;2.85;2.65;;;;;;;;;;4965905;28;20039;-89
2023/06/05 07:47:49;;;;;;;2.65;2.53;;;;;;;;;;4969365;28;20047;-90
2023/06/05 07:50:17;;;;;;;2.90;2.70;;;;;;;;;;4962503;28;20576;-89
2023/06/05 07:52:44;;;;;;;2.50;2.40;;;;;;;;;;4956476;28;20051;-86
2023/06/05 07:55:12;;;;;;;2.60;2.50;;;;;;;;;;4965733;28;20047;-85
2023/06/05 07:57:39;;;;;;;2.10;2.00;;;;;;;;;;4977633;28;20063;-84
2023/06/05 08:00:10;;;;;;;2.33;2.22;;;;;;;;;;4973760;28;20051;-85
2023/06/05 08:02:43;;;;;;;3.15;2.88;;;;;;;;;;4970108;28;20034;-83
2023/06/05 08:05:11;;;;;;;2.58;2.38;;;;;;;;;;4972434;28;20055;-84
2023/06/05 08:07:39;;;;;;;3.05;2.85;;;;;;;;;;4979671;28;20051;-86
2023/06/05 08:10:07;;;;;;;2.20;2.10;;;;;;;;;;4958690;28;20051;-85
2023/06/05 08:12:34;;;;;;;2.08;1.98;;;;;;;;;;4968076;28;20034;-84
2023/06/05 08:15:01;;;;;;;2.05;1.95;;;;;;;;;;4966900;28;20063;-84
2023/06/05 08:17:29;;;;;;;2.40;2.30;;;;;;;;;;4971523;28;20055;-86
2023/06/05 08:19:56;;;;;;;2.67;2.47;;;;;;;;;;4965583;28;20062;-84
2023/06/05 08:22:24;;;;;;;2.10;2.00;;;;;;;;;;4965736;28;20110;-85
2023/06/05 08:24:54;;;;;;;2.10;1.90;;;;;;;;;;4967150;28;20047;-84
2023/06/05 08:27:21;;;;;;;2.65;2.40;;;;;;;;;;4970773;28;20051;-84
2023/06/05 08:29:48;;;;;;;2.10;2.00;;;;;;;;;;4964444;28;20059;-85
2023/06/05 08:32:18;;;;;;;2.10;2.00;;;;;;;;;;4952705;28;20040;-85
2023/06/05 08:34:46;;;;;;;2.13;2.03;;;;;;;;;;4952935;28;20048;-86
2023/06/05 08:37:13;;;;;;;2.10;2.00;;;;;;;;;;4952263;28;20055;-85
2023/06/05 08:39:41;;;;;;;2.00;1.90;;;;;;;;;;4951576;28;20053;-85
2023/06/05 08:42:10;;;;;;;1.90;1.90;;;;;;;;;;4952017;28;20065;-86
2023/06/05 08:44:38;;;;;;;3.33;1.95;;;;;;;;;;4961737;28;20134;-82
2023/06/05 08:47:31;;;;;;;2.28;2.17;;;;;;;;;;4966440;28;20070;-84
2023/06/05 08:50:01;;;;;;;2.65;2.45;;;;;;;;;;4965532;28;20047;-86
2023/06/05 08:52:32;;;;;;;2.40;2.30;;;;;;;;;;4971845;28;20047;-85
2023/06/05 08:54:59;;;;;;;2.42;2.33;;;;;;;;;;4972900;28;20047;-85
2023/06/05 08:57:28;;;;;;;2.50;2.40;;;;;;;;;;4961031;28;20497;-86
2023/06/05 08:59:56;;;;;;;2.58;2.47;;;;;;;;;;4960273;28;20067;-85
2023/06/05 09:02:23;;;;;;;2.40;2.30;;;;;;;;;;4960549;28;20062;-85
2023/06/05 09:04:51;;;;;;;2.60;2.50;;;;;;;;;;4973320;28;20114;-85
2023/06/05 09:07:19;;;;;;;3.08;2.78;;;;;;;;;;4971264;28;20059;-85
2023/06/05 09:09:46;;;;;;;2.53;2.42;;;;;;;;;;4966606;28;20054;-85
2023/06/05 09:12:13;;;;;;;2.45;2.35;;;;;;;;;;4967247;28;20115;-86
2023/06/05 09:14:41;;;;;;;2.20;2.10;;;;;;;;;;4974671;28;20059;-86
2023/06/05 09:17:12;;;;;;;2.72;2.53;;;;;;;;;;4962289;28;20043;-86
2023/06/05 09:19:40;;;;;;;;;;;;;;;;;;4954186;28;20050;-85
2023/06/05 09:22:08;;;;;;;2.55;2.35;;;;;;;;;;4963907;28;19922;-85
2023/06/05 09:24:37;;;;;;;2.22;2.13;;;;;;;;;;4955299;28;20282;-85
2023/06/05 09:27:08;;;;;;;2.75;2.58;;;;;;;;;;4959766;28;20043;-85
2023/06/05 09:29:39;;;;;;;2.83;2.63;;;;;;;;;;4959555;28;20043;-85
2023/06/05 09:32:09;;;;;;;2.53;2.42;;;;;;;;;;4956876;28;20055;-86
2023/06/05 09:34:38;;;;;;;2.85;2.65;;;;;;;;;;4960774;28;20131;-85
2023/06/05 09:37:09;;;;;;;2.60;2.50;;;;;;;;;;4955172;28;20081;-86
2023/06/05 09:39:38;;;;;;;2.40;2.30;;;;;;;;;;4951599;28;20508;-85
2023/06/05 09:42:06;;;;;;;2.65;2.55;;;;;;;;;;4958836;28;20078;-87
2023/06/05 09:44:34;;;;;;;2.58;2.47;;;;;;;;;;4973752;28;20066;-84
2023/06/05 09:47:02;;;;;;;2.50;2.40;;;;;;;;;;4967914;28;20070;-86
2023/06/05 09:49:30;;;;;;;2.63;2.53;;;;;;;;;;4966130;28;20051;-85
2023/06/05 09:52:01;;;;;;;2.50;2.40;;;;;;;;;;4963678;28;20094;-85
2023/06/05 09:54:30;;;;;;;2.55;2.45;;;;;;;;;;4955205;28;20050;-86
2023/06/05 09:57:16;;;;;;;2.30;2.20;;;;;;;;;;4955943;28;20046;-85
2023/06/05 09:59:46;;;;;;;2.33;2.22;;;;;;;;;;4957996;28;20118;-87
2023/06/05 10:02:16;;;;;;;2.75;2.00;;;;;;;;;;4961111;28;20463;-86
2023/06/05 10:04:48;;;;;;;2.15;2.05;;;;;;;;;;4957438;28;20047;-84
2023/06/05 10:07:16;;;;;;;2.35;2.25;;;;;;;;;;4946774;28;20063;-86
2023/06/05 10:09:45;;;;;;;2.20;2.10;;;;;;;;;;4942142;28;20051;-85
2023/06/05 10:12:12;;;;;;;2.78;2.58;;;;;;;;;;4946880;28;20416;-87
2023/06/05 10:14:41;;;;;;;3.17;2.40;;;;;;;;;;4950334;28;20415;-86
2023/06/05 10:17:10;;;;;;;2.90;2.45;;;;;;;;;;4967704;28;20428;-85
2023/06/05 10:19:41;;;;;;;2.47;2.20;;;;;;;;;;4951419;28;20047;-84
2023/06/05 10:22:11;;;;;;;2.22;2.13;;;;;;;;;;4968983;28;20073;-86
2023/06/05 10:24:47;;;;;;;2.53;2.35;;;;;;;;;;4961659;28;20065;-86
2023/06/05 10:27:17;;;;;;;2.33;2.22;;;;;;;;;;4954115;28;20073;-86
2023/06/05 10:29:55;;;;;;;2.40;2.30;;;;;;;;;;4952350;28;20462;-86
2023/06/05 10:32:29;;;;;;;2.70;2.60;;;;;;;;;;4953911;28;20094;-85
2023/06/05 10:35:02;;;;;;;3.22;3.03;;;;;;;;;;4951415;28;20135;-88
2023/06/05 10:37:30;;;;;;;2.22;2.13;;;;;;;;;;4972528;28;20051;-86
2023/06/05 10:39:57;;;;;;;2.42;2.33;;;;;;;;;;4974079;28;20068;-87
2023/06/05 10:42:26;;;;;;;2.60;2.40;;;;;;;;;;4960495;28;20059;-88
2023/06/05 10:44:54;;;;;;;2.90;2.80;;;;;;;;;;4958158;28;20087;-86
2023/06/05 10:47:49;;;;;;;2.97;2.78;;;;;;;;;;4954709;28;20078;-86
2023/06/05 10:50:17;;;;;;;2.50;2.40;;;;;;;;;;4957584;28;20050;-86
2023/06/05 10:52:48;;;;;;;2.28;2.13;;;;;;;;;;4957720;28;20446;-85
2023/06/05 10:55:16;;;;;;;2.58;2.28;;;;;;;;;;4952734;28;20051;-88
2023/06/05 10:58:02;;;;;;;1.98;1.88;;;;;;;;;;4957375;28;20039;-86
2023/06/05 11:00:33;;;;;;;2.60;2.40;;;;;;;;;;4956821;28;20521;-89
2023/06/05 11:03:01;;;;;;;2.88;2.50;;;;;;;;;;4956545;28;20079;-87
2023/06/05 11:05:30;;;;;;;2.33;2.13;;;;;;;;;;4957914;28;20097;-87
2023/06/05 11:08:10;;;;;;;2.80;2.60;;;;;;;;;;4959603;28;20051;-87
2023/06/05 11:10:38;;;;;;;2.30;2.20;;;;;;;;;;4953606;28;20051;-86
2023/06/05 11:13:08;;;;;;;2.17;2.07;;;;;;;;;;4960003;28;20133;-87
2023/06/05 11:15:40;;;;;;;2.47;2.38;;;;;;;;;;4953168;28;20106;-86
2023/06/05 11:18:07;;;;;;;;;;;;;;;;;;4950601;28;20138;-88
2023/06/05 11:20:34;;;;;;;2.30;2.20;;;;;;;;;;4952089;28;19956;-86
2023/06/05 11:23:02;;;;;;;2.33;2.22;;;;;;;;;;4970243;28;20062;-86
2023/06/05 11:25:36;;;;;;;2.17;2.08;;;;;;;;;;4955937;28;20058;-87
2023/06/05 11:28:05;;;;;;;3.47;2.60;;;;;;;;;;4954254;28;20638;-88
2023/06/05 11:30:40;;;;;;;2.72;2.53;;;;;;;;;;4958236;28;20055;-86
2023/06/05 11:33:15;;;;;;;2.13;2.03;;;;;;;;;;4957427;28;20456;-87
2023/06/05 11:35:45;;;;;;;2.50;2.40;;;;;;;;;;4961405;28;20043;-85
2023/06/05 11:38:20;;;;;;;2.85;2.63;;;;;;;;;;4972912;28;20054;-85
2023/06/05 11:40:50;;;;;;;2.13;2.03;;;;;;;;;;4970490;28;20098;-85
2023/06/05 11:43:18;;;;;;;2.40;2.30;;;;;;;;;;4977501;28;20047;-85
2023/06/05 11:45:56;;;;;;;2.10;2.00;;;;;;;;;;4980435;28;20087;-86
2023/06/05 11:48:28;;;;;;;2.60;2.40;;;;;;;;;;4973409;28;20059;-84
2023/06/05 11:50:58;;;;;;;2.20;2.00;;;;;;;;;;4972704;28;20046;-88
2023/06/05 11:53:29;;;;;;;2.67;2.40;;;;;;;;;;4971271;28;20043;-86
2023/06/05 11:58:32;;;;;;;2.10;2.00;;;;;;;;;;4965801;28;20083;-86
2023/06/05 12:01:07;;;;;;;1.95;1.85;;;;;;;;;;4968482;28;20047;-85
2023/06/05 12:03:35;;;;;;;2.10;2.00;;;;;;;;;;4962605;28;20166;-86
2023/06/05 12:06:03;;;;;;;2.10;2.00;;;;;;;;;;4954296;28;20040;-87
2023/06/05 12:08:33;;;;;;;2.20;2.10;;;;;;;;;;4962115;28;20083;-89
2023/06/05 12:11:01;;;;;;;2.30;2.20;;;;;;;;;;4964244;28;20762;-87
2023/06/05 12:13:47;;;;;;;2.22;2.00;;;;;;;;;;4953981;28;20461;-87
2023/06/05 12:16:15;;;;;;;2.17;2.08;;;;;;;;;;4961300;28;20054;-87
2023/06/05 12:18:43;;;;;;;2.20;2.10;;;;;;;;;;4975599;28;20058;-87
2023/06/05 12:21:20;;;;;;;2.47;2.28;;;;;;;;;;4957137;28;20050;-87
2023/06/05 12:23:48;;;;;;;2.38;2.28;;;;;;;;;;4957337;28;20182;-87
2023/06/05 12:26:16;;;;;;;2.13;2.03;;;;;;;;;;4962634;28;20428;-87
2023/06/05 12:28:46;;;;;;;2.65;2.55;;;;;;;;;;4959290;28;20067;-86
2023/06/05 12:31:33;;;;;;;4.50;3.00;;;;;;;;;;4957790;28;20043;-87
2023/06/05 12:34:10;;;;;;;2.92;2.72;;;;;;;;;;4956467;28;20055;-88
2023/06/05 12:36:42;;;;;;;2.30;2.20;;;;;;;;;;4956685;28;20047;-86
2023/06/05 12:39:13;;;;;;;2.30;2.20;;;;;;;;;;4964169;28;20068;-87
2023/06/05 12:41:41;;;;;;;2.63;2.22;;;;;;;;;;4967049;28;20051;-87
2023/06/05 12:44:09;;;;;;;3.03;2.42;;;;;;;;;;4956308;28;20525;-87
2023/06/05 12:46:37;;;;;;;2.05;1.95;;;;;;;;;;4956389;28;20059;-88
2023/06/05 12:49:05;;;;;;;2.63;2.50;;;;;;;;;;4963294;28;20043;-87
2023/06/05 12:51:39;;;;;;;2.22;2.13;;;;;;;;;;4961733;28;20109;-88
2023/06/05 12:54:07;;;;;;;2.75;2.60;;;;;;;;;;4953875;28;20426;-87
2023/06/05 12:56:35;;;;;;;2.70;2.50;;;;;;;;;;4950501;28;20055;-85
2023/06/05 12:59:02;;;;;;;2.90;2.75;;;;;;;;;;4953748;28;20421;-86
2023/06/05 13:01:31;;;;;;;2.95;2.80;;;;;;;;;;4954602;28;20047;-88
2023/06/05 13:03:58;;;;;;;3.20;3.00;;;;;;;;;;4961406;28;20046;-90
2023/06/05 13:06:27;;;;;;;2.95;2.65;;;;;;;;;;4961862;28;20102;-87
2023/06/05 13:08:55;;;;;;;3.90;3.60;;;;;;;;;;4958287;28;20078;-87
2023/06/05 13:11:22;;;;;;;3.30;3.10;;;;;;;;;;4956341;28;20086;-87
2023/06/05 13:13:50;;;;;;;3.03;2.83;;;;;;;;;;4955058;28;20098;-88
2023/06/05 13:16:17;;;;;;;3.28;3.08;;;;;;;;;;4949936;28;20073;-85
2023/06/05 13:18:44;;;;;;;2.90;2.70;;;;;;;;;;4972312;28;20043;-87
2023/06/05 13:21:12;;;;;;;3.20;2.90;;;;;;;;;;4964496;28;20047;-88
2023/06/05 13:23:39;;;;;;;3.55;3.22;;;;;;;;;;4954406;28;20395;-88
2023/06/05 13:26:07;;;;;;;3.05;2.83;;;;;;;;;;4947087;28;20106;-87
2023/06/05 13:28:34;;;;;;;2.90;2.80;;;;;;;;;;4959852;28;20460;-88
2023/06/05 13:31:02;;;;;;;3.75;3.45;;;;;;;;;;4960399;28;20054;-87
2023/06/05 13:33:32;;;;;;;3.10;2.90;;;;;;;;;;4961070;28;20070;-87
2023/06/05 13:36:00;;;;;;;3.50;3.20;;;;;;;;;;4954316;28;20554;-87
2023/06/05 13:38:33;;;;;;;2.72;2.53;;;;;;;;;;4955398;28;20071;-88
2023/06/05 13:41:00;;;;;;;2.65;2.53;;;;;;;;;;4954433;28;20063;-88
2023/06/05 13:43:27;;;;;;;3.35;3.15;;;;;;;;;;4955208;28;20101;-87
2023/06/05 13:45:55;;;;;;;4.10;3.90;;;;;;;;;;4952232;28;20059;-88
2023/06/05 13:48:23;;;;;;;3.17;2.97;;;;;;;;;;4953957;28;20046;-86
2023/06/05 13:50:50;;;;;;;3.35;3.15;;;;;;;;;;4953910;28;20501;-87
2023/06/05 13:53:17;;;;;;;2.90;2.80;;;;;;;;;;4953348;28;20051;-87
2023/06/05 13:55:45;;;;;;;2.50;2.40;;;;;;;;;;4955205;28;20066;-87
2023/06/05 13:58:13;;;;;;;2.70;2.50;;;;;;;;;;4954766;28;20055;-87
2023/06/05 14:00:40;;;;;;;2.63;2.53;;;;;;;;;;4954647;28;20039;-87
2023/06/05 14:03:07;;;;;;;3.15;2.88;;;;;;;;;;4956396;28;20501;-88
2023/06/05 14:05:35;;;;;;;3.30;2.90;;;;;;;;;;4977317;28;20046;-86
2023/06/05 14:08:02;;;;;;;3.80;3.60;;;;;;;;;;4978000;28;20023;-86
2023/06/05 14:10:30;;;;;;;3.42;3.22;;;;;;;;;;4960924;28;20062;-87
2023/06/05 14:12:57;;;;;;;3.55;3.28;;;;;;;;;;4963633;28;20055;-86
2023/06/05 14:15:25;;;;;;;2.75;2.63;;;;;;;;;;4954948;28;20039;-87
2023/06/05 14:17:53;;;;;;;3.30;3.10;;;;;;;;;;4953629;28;20054;-87
2023/06/05 14:20:20;;;;;;;3.30;3.10;;;;;;;;;;4953509;28;20490;-87
2023/06/05 14:22:48;;;;;;;2.88;2.67;;;;;;;;;;4953427;28;20051;-86
2023/06/05 14:25:15;;;;;;;3.05;2.85;;;;;;;;;;4952974;28;20498;-85
2023/06/05 14:27:43;;;;;;;3.60;3.30;;;;;;;;;;4950230;28;20043;-85
2023/06/05 14:30:10;;;;;;;4.05;3.75;;;;;;;;;;4953803;28;20142;-85
2023/06/05 14:32:38;;;;;;;3.15;2.95;;;;;;;;;;4952764;28;20063;-85
2023/06/05 14:35:06;;;;;;;3.95;3.65;;;;;;;;;;4952252;28;20058;-85
2023/06/05 14:37:33;;;;;;;4.35;3.85;;;;;;;;;;4953566;28;20054;-86
2023/06/05 14:40:01;;;;;;;4.53;4.07;;;;;;;;;;4951595;28;20075;-88
2023/06/05 14:42:28;;;;;;;4.47;4.18;;;;;;;;;;4954094;28;20043;-88
2023/06/05 14:44:56;;;;;;;5.20;4.70;;;;;;;;;;4952590;28;20047;-89
2023/06/05 14:47:23;;;;;;;6.53;5.25;;;;;;;;;;4963023;28;20067;-85
2023/06/05 14:49:51;;;;;;;5.60;4.95;;;;;;;;;;4950916;28;20054;-86
2023/06/05 14:52:33;;;;;;;5.07;4.65;;;;;;;;;;4952130;28;20062;-87
2023/06/05 14:55:01;;;;;;;;;;;;;;;;;;4953330;28;20134;-88
2023/06/05 15:02:03;;;;;;;5.70;5.20;;;;;;;;;;4990836;23;20046;-80
2023/06/05 15:04:31;;;;;;;5.07;4.32;;;;;;;;;;4967668;28;20054;-83